Time;durP1;ratioP1;P1;durP2;ratioP2;P2;SDS_P1;SDS_P2;PMS_P1;PMS_P2;Temp;Humidity;BMP_temperature;BMP_pressure;BME280_temperature;BME280_humidity;BME280_pressure;Samples;Min_cycle;Max_cycle;Signal;HPM_P1;HPM_P2
2020/12/01 00:07:32;;;;;;;14.55;7.30;;;2.80;99.90;;;;;;6742244;88;20723;-77
2020/12/01 00:17:32;;;;;;;14.35;7.07;;;2.80;99.90;;;;;;6738886;88;20235;-79
2020/12/01 00:27:33;;;;;;;13.00;6.85;;;2.80;99.90;;;;;;6743435;88;21089;-77
2020/12/01 00:37:36;;;;;;;12.82;6.25;;;2.80;99.90;;;;;;6740762;88;20754;-76
2020/12/01 00:47:37;;;;;;;14.75;7.25;;;2.80;99.90;;;;;;6742525;88;20214;-77
2020/12/01 00:57:38;;;;;;;17.27;7.72;;;2.80;99.90;;;;;;6724987;88;20241;-76
2020/12/01 01:07:38;;;;;;;18.30;7.78;;;2.70;99.90;;;;;;6704480;88;20205;-77
2020/12/01 01:17:39;;;;;;;16.37;8.23;;;2.80;99.90;;;;;;6720084;88;20796;-76
2020/12/01 01:27:40;;;;;;;16.77;8.07;;;2.90;99.90;;;;;;6727154;88;20649;-78
2020/12/01 01:37:40;;;;;;;19.73;8.90;;;2.90;99.90;;;;;;6723095;88;20192;-77
2020/12/01 01:47:44;;;;;;;20.25;8.75;;;3.00;99.90;;;;;;6722314;88;20201;-76
2020/12/01 01:57:50;;;;;;;18.35;8.20;;;2.90;99.90;;;;;;6726830;88;21059;-77
2020/12/01 02:07:50;;;;;;;19.58;8.77;;;2.90;99.90;;;;;;6727892;88;20236;-76
2020/12/01 02:17:51;;;;;;;16.37;7.93;;;3.00;99.90;;;;;;6727036;88;20204;-76
2020/12/01 02:27:56;;;;;;;14.18;6.85;;;3.10;99.90;;;;;;6731278;88;20585;-76
2020/12/01 02:37:56;;;;;;;21.95;7.32;;;3.20;99.90;;;;;;6727953;88;20713;-76
2020/12/01 02:47:57;;;;;;;14.45;6.82;;;3.10;99.90;;;;;;6728805;88;20189;-76
2020/12/01 02:57:57;;;;;;;17.15;7.53;;;3.10;99.90;;;;;;6725522;88;20200;-77
2020/12/01 03:07:58;;;;;;;14.25;7.22;;;3.10;99.90;;;;;;6723061;88;20316;-77
2020/12/01 03:17:58;;;;;;;13.52;7.20;;;3.10;99.90;;;;;;6723330;88;20192;-76
2020/12/01 03:27:59;;;;;;;16.02;7.65;;;3.20;99.90;;;;;;6728764;88;20246;-76
2020/12/01 03:37:59;;;;;;;21.27;9.27;;;3.30;99.90;;;;;;6727784;88;20564;-76
2020/12/01 03:48:00;;;;;;;18.27;9.00;;;3.20;99.90;;;;;;6729054;88;20199;-76
2020/12/01 03:58:00;;;;;;;18.73;8.95;;;3.30;99.90;;;;;;6721440;88;20246;-77
2020/12/01 04:08:01;;;;;;;20.15;9.73;;;3.30;99.90;;;;;;6722251;88;20185;-77
2020/12/01 04:18:02;;;;;;;16.92;8.35;;;3.40;99.90;;;;;;6722465;88;20211;-76
2020/12/01 04:28:05;;;;;;;17.45;8.45;;;3.30;99.90;;;;;;6722543;88;20185;-76
2020/12/01 04:38:06;;;;;;;18.42;8.82;;;3.40;99.90;;;;;;6721907;88;20261;-77
2020/12/01 04:48:28;;;;;;;18.83;8.35;;;3.40;99.90;;;;;;6722613;88;20202;-76
2020/12/01 04:58:56;;;;;;;16.15;8.88;;;3.50;99.90;;;;;;6722431;88;20190;-76
2020/12/01 05:09:03;;;;;;;20.15;9.15;;;3.50;99.90;;;;;;6730660;88;20168;-75
2020/12/01 05:19:27;;;;;;;18.08;8.02;;;3.50;99.90;;;;;;6740495;88;20199;-76
2020/12/01 05:29:27;;;;;;;18.10;8.90;;;3.60;99.90;;;;;;6744940;88;20696;-76
2020/12/01 05:39:33;;;;;;;19.95;9.20;;;3.60;99.90;;;;;;6744010;88;20182;-76
2020/12/01 05:49:50;;;;;;;14.80;7.93;;;3.70;99.90;;;;;;6741364;88;20642;-75
2020/12/01 05:59:53;;;;;;;17.02;7.97;;;3.80;99.90;;;;;;6726189;88;20202;-76
2020/12/01 06:10:15;;;;;;;16.70;8.73;;;3.80;99.90;;;;;;6741259;88;20189;-75
2020/12/01 06:20:21;;;;;;;19.48;9.23;;;3.80;99.90;;;;;;6739289;88;20188;-76
2020/12/01 06:30:42;;;;;;;19.90;9.43;;;3.70;99.90;;;;;;6739268;88;20230;-75
2020/12/01 06:41:01;;;;;;;20.50;9.30;;;3.80;99.90;;;;;;6734444;88;20203;-75
2020/12/01 06:51:03;;;;;;;19.08;9.10;;;4.00;99.90;;;;;;6738133;88;20180;-75
2020/12/01 07:01:09;;;;;;;17.87;8.10;;;4.00;99.90;;;;;;6738711;88;20225;-75
2020/12/01 07:11:23;;;;;;;16.50;7.80;;;3.90;99.90;;;;;;6737627;88;20287;-76
2020/12/01 07:21:46;;;;;;;17.10;8.63;;;3.90;99.90;;;;;;6739289;87;21035;-75
2020/12/01 07:31:47;;;;;;;17.67;8.63;;;4.10;99.90;;;;;;6738749;88;20208;-76
2020/12/01 07:41:55;;;;;;;17.10;8.80;;;4.00;99.90;;;;;;6743126;88;20726;-76
2020/12/01 07:52:14;;;;;;;19.83;8.70;;;4.10;99.90;;;;;;6738017;88;20609;-76
2020/12/01 08:02:17;;;;;;;18.00;8.43;;;4.20;99.90;;;;;;6743736;88;20644;-77
2020/12/01 08:12:18;;;;;;;15.70;8.15;;;4.30;99.90;;;;;;6741987;88;20246;-78
2020/12/01 08:22:23;;;;;;;17.25;8.15;;;4.30;99.90;;;;;;6748520;88;20401;-78
2020/12/01 08:32:33;;;;;;;18.33;8.93;;;4.30;99.90;;;;;;6738516;88;20201;-75
2020/12/01 08:42:56;;;;;;;16.95;8.65;;;4.40;99.90;;;;;;6741947;88;20182;-80
2020/12/01 08:53:17;;;;;;;16.12;8.68;;;4.30;99.90;;;;;;6736763;88;20649;-76
2020/12/01 09:03:17;;;;;;;31.00;9.98;;;4.30;99.90;;;;;;6759866;88;20178;-79
2020/12/01 09:13:26;;;;;;;39.33;11.32;;;4.50;99.90;;;;;;6751407;88;20194;-81
2020/12/01 09:23:32;;;;;;;31.17;11.23;;;4.60;99.90;;;;;;6742304;88;20988;-77
2020/12/01 09:33:32;;;;;;;24.30;9.75;;;4.80;99.90;;;;;;6748991;88;20196;-77
2020/12/01 09:43:38;;;;;;;21.35;9.55;;;4.70;99.90;;;;;;6747467;88;20210;-78
2020/12/01 09:53:50;;;;;;;22.57;8.97;;;4.80;99.90;;;;;;6747296;88;20209;-77
2020/12/01 10:15:27;;;;;;;20.05;8.90;;;5.00;99.90;;;;;;6740491;88;20645;-78
2020/12/01 10:34:49;;;;;;;22.35;8.38;;;5.10;99.90;;;;;;6734092;88;20169;-77
2020/12/01 10:44:50;;;;;;;20.13;9.33;;;5.20;99.90;;;;;;6738751;88;20597;-78
2020/12/01 10:54:50;;;;;;;20.17;9.77;;;5.10;99.90;;;;;;6747117;88;20196;-77
2020/12/01 11:04:51;;;;;;;23.45;9.27;;;5.20;99.90;;;;;;6746436;88;20520;-78
2020/12/01 11:14:51;;;;;;;20.05;8.68;;;5.20;99.90;;;;;;6757322;88;20258;-79
2020/12/01 11:24:52;;;;;;;19.92;8.77;;;5.40;99.90;;;;;;6753563;88;20841;-78
2020/12/01 11:34:53;;;;;;;23.90;9.43;;;5.40;99.90;;;;;;6758577;87;20183;-75
2020/12/01 11:44:54;;;;;;;20.23;10.30;;;5.70;99.90;;;;;;6754112;88;20673;-77
2020/12/01 11:54:54;;;;;;;27.35;10.23;;;5.70;99.90;;;;;;6756194;87;20324;-78
2020/12/01 12:04:55;;;;;;;28.92;11.23;;;5.80;99.90;;;;;;6747641;88;20174;-78
2020/12/01 12:14:55;;;;;;;26.20;11.05;;;5.60;99.90;;;;;;6744152;88;20166;-77
2020/12/01 12:24:56;;;;;;;28.08;10.75;;;5.90;99.90;;;;;;6739904;88;20313;-76
2020/12/01 12:34:57;;;;;;;26.52;10.50;;;6.00;99.90;;;;;;6743945;88;20215;-78
2020/12/01 12:44:57;;;;;;;27.52;11.02;;;5.80;99.90;;;;;;6744640;88;20649;-78
2020/12/01 12:54:58;;;;;;;31.08;11.80;;;5.60;99.90;;;;;;6738251;88;20196;-78
2020/12/01 13:04:59;;;;;;;25.27;11.35;;;5.60;99.90;;;;;;6738872;88;21078;-77
2020/12/01 13:14:59;;;;;;;22.95;11.32;;;5.60;99.90;;;;;;6739361;88;20635;-77
2020/12/01 13:25:00;;;;;;;28.12;12.43;;;5.50;99.90;;;;;;6751240;88;20236;-76
2020/12/01 13:35:01;;;;;;;29.27;12.27;;;5.40;99.90;;;;;;6748355;88;20196;-77
2020/12/01 13:45:02;;;;;;;32.63;11.85;;;5.40;99.90;;;;;;6750868;88;20265;-77
2020/12/01 13:55:05;;;;;;;31.52;11.85;;;5.50;99.90;;;;;;6746124;87;20192;-81
2020/12/01 14:05:06;;;;;;;33.15;12.95;;;5.40;99.90;;;;;;6748209;88;20181;-79
2020/12/01 14:15:08;;;;;;;28.02;11.25;;;5.50;99.90;;;;;;6747608;88;20181;-80
2020/12/01 14:25:11;;;;;;;26.62;10.45;;;5.40;99.90;;;;;;6739342;88;20213;-80
2020/12/01 14:35:17;;;;;;;24.75;10.13;;;5.50;99.90;;;;;;6743388;88;20293;-80
2020/12/01 14:45:18;;;;;;;26.07;9.80;;;5.50;99.90;;;;;;6759922;88;20227;-79
2020/12/01 14:56:00;;;;;;;25.15;10.38;;;5.60;99.90;;;;;;6760624;88;20610;-80
2020/12/01 15:06:27;;;;;;;27.08;10.25;;;5.60;99.90;;;;;;6749576;88;20206;-79
2020/12/01 15:16:31;;;;;;;28.33;10.15;;;5.60;99.90;;;;;;6743798;88;20206;-78
2020/12/01 15:26:32;;;;;;;23.00;9.82;;;5.60;99.90;;;;;;6747083;88;20184;-78
2020/12/01 15:36:38;;;;;;;25.00;10.60;;;5.60;99.90;;;;;;6752627;88;20207;-78
2020/12/01 15:46:39;;;;;;;29.87;11.87;;;5.60;99.90;;;;;;6753317;88;20216;-78
2020/12/01 15:56:52;;;;;;;24.23;11.27;;;5.40;99.90;;;;;;6754583;88;20217;-77
2020/12/01 16:06:58;;;;;;;25.90;12.02;;;5.40;99.90;;;;;;6754751;88;20185;-77
2020/12/01 16:17:08;;;;;;;24.40;11.43;;;5.10;99.90;;;;;;6743399;88;20182;-78
2020/12/01 16:27:08;;;;;;;21.00;9.32;;;4.90;99.90;;;;;;6749140;88;20192;-79
2020/12/01 16:37:18;;;;;;;20.77;9.15;;;4.70;99.90;;;;;;6746597;88;20149;-80
2020/12/01 16:47:32;;;;;;;20.17;8.98;;;4.70;99.90;;;;;;6739507;88;20194;-79
2020/12/01 16:57:44;;;;;;;20.98;9.98;;;4.60;99.90;;;;;;6752096;88;20192;-78
2020/12/01 17:07:47;;;;;;;19.23;8.98;;;4.70;99.90;;;;;;6754760;88;20341;-78
2020/12/01 17:18:06;;;;;;;18.87;7.93;;;4.60;99.90;;;;;;6749191;88;20330;-78
2020/12/01 17:28:09;;;;;;;14.93;8.50;;;4.60;99.90;;;;;;6745469;88;20216;-83
2020/12/01 17:38:21;;;;;;;17.48;8.57;;;4.60;99.90;;;;;;6752927;88;20192;-79
2020/12/01 17:48:28;;;;;;;16.17;7.87;;;4.70;99.90;;;;;;6752855;88;20591;-77
2020/12/01 17:58:34;;;;;;;21.17;8.93;;;4.80;99.90;;;;;;6740700;88;20674;-79
2020/12/01 18:08:35;;;;;;;16.65;9.40;;;4.80;99.90;;;;;;6728671;88;20602;-78
2020/12/01 18:18:42;;;;;;;17.08;9.48;;;4.90;99.90;;;;;;6726668;88;20252;-78
2020/12/01 18:28:49;;;;;;;17.10;9.45;;;4.90;99.90;;;;;;6743307;88;20586;-77
2020/12/01 18:38:50;;;;;;;19.48;8.90;;;4.90;99.90;;;;;;6745419;88;20210;-78
2020/12/01 18:48:51;;;;;;;17.58;9.55;;;5.00;99.90;;;;;;6747867;88;20195;-79
2020/12/01 18:58:52;;;;;;;16.62;9.18;;;4.90;99.90;;;;;;6744904;88;20347;-77
2020/12/01 19:08:54;;;;;;;16.65;9.82;;;4.90;99.90;;;;;;6744370;88;20184;-78
2020/12/01 19:18:54;;;;;;;19.58;9.75;;;4.90;99.90;;;;;;6747653;88;20201;-79
2020/12/01 19:28:55;;;;;;;18.10;9.68;;;5.00;99.90;;;;;;6746156;88;20195;-78
2020/12/01 19:38:56;;;;;;;17.37;9.93;;;5.00;99.90;;;;;;6752942;88;20193;-78
2020/12/01 19:48:57;;;;;;;16.80;8.88;;;5.00;99.90;;;;;;6748488;88;20223;-78
2020/12/01 19:58:57;;;;;;;18.25;10.00;;;5.10;99.90;;;;;;6748327;88;20245;-78
2020/12/01 20:08:58;;;;;;;21.27;10.30;;;5.10;99.90;;;;;;6743351;88;20687;-77
2020/12/01 20:18:59;;;;;;;18.62;9.30;;;5.00;99.90;;;;;;6745923;88;20214;-77
2020/12/01 20:29:00;;;;;;;18.52;9.38;;;4.90;99.90;;;;;;6743613;88;20272;-78
2020/12/01 20:39:39;;;;;;;18.70;9.75;;;4.90;99.90;;;;;;6739630;88;20202;-77
2020/12/01 20:49:39;;;;;;;17.48;9.18;;;4.90;99.90;;;;;;6742199;88;20660;-77
2020/12/01 20:59:40;;;;;;;18.73;9.27;;;5.00;99.90;;;;;;6741446;88;20273;-78
2020/12/01 21:09:41;;;;;;;18.08;8.98;;;4.90;99.90;;;;;;6742731;88;20269;-77
2020/12/01 21:19:42;;;;;;;17.95;8.63;;;5.00;99.90;;;;;;6737131;88;20276;-77
2020/12/01 21:29:54;;;;;;;18.85;9.20;;;5.00;99.90;;;;;;6739305;88;20196;-77
2020/12/01 21:39:55;;;;;;;20.10;10.32;;;5.00;99.90;;;;;;6735021;88;20693;-77
2020/12/01 21:49:58;;;;;;;20.98;9.65;;;4.90;99.90;;;;;;6734023;88;20198;-77
2020/12/01 22:00:18;;;;;;;24.00;10.25;;;4.80;99.90;;;;;;6736753;88;20317;-77
2020/12/01 22:10:29;;;;;;;20.35;9.65;;;4.70;99.90;;;;;;6735597;88;20247;-76
2020/12/01 22:20:40;;;;;;;16.55;8.68;;;4.90;99.90;;;;;;6735552;88;20205;-77
2020/12/01 22:31:30;;;;;;;19.30;9.45;;;4.90;99.90;;;;;;6740324;88;20288;-78
2020/12/01 22:41:50;;;;;;;18.90;9.15;;;4.80;99.90;;;;;;6740721;88;20267;-76
2020/12/01 22:52:32;;;;;;;18.25;9.15;;;4.80;99.90;;;;;;6740216;88;20207;-78
2020/12/01 23:02:34;;;;;;;18.23;8.63;;;4.70;99.90;;;;;;6739860;88;20207;-79
2020/12/01 23:12:39;;;;;;;18.23;9.25;;;4.70;99.90;;;;;;6738411;87;20275;-78
2020/12/01 23:22:40;;;;;;;17.60;8.77;;;4.70;99.90;;;;;;6758771;88;20208;-79
2020/12/01 23:32:41;;;;;;;20.50;9.10;;;4.90;99.90;;;;;;6758382;88;20237;-79
2020/12/01 23:43:23;;;;;;;17.87;8.75;;;4.70;99.90;;;;;;6759039;87;20503;-79
2020/12/01 23:53:24;;;;;;;18.25;8.23;;;4.70;99.90;;;;;;6757908;87;20280;-78
